createdAt,value
2019-01-18T00:02:26.175Z,3.89
2019-01-18T00:04:58.937Z,3.84
2019-01-18T00:07:31.683Z,3.86
2019-01-18T00:10:05.532Z,3.89
2019-01-18T00:12:38.345Z,3.90
2019-01-18T00:15:11.412Z,3.93
2019-01-18T00:17:44.155Z,3.80
2019-01-18T00:20:16.975Z,3.78
2019-01-18T00:22:49.720Z,3.75
2019-01-18T00:25:22.432Z,3.83
2019-01-18T00:27:55.126Z,3.94
2019-01-18T00:30:27.771Z,3.87
2019-01-18T00:33:01.639Z,3.84
2019-01-18T00:35:34.414Z,3.82
2019-01-18T00:38:07.151Z,4.04
2019-01-18T00:40:39.851Z,3.93
2019-01-18T00:43:12.502Z,3.77
2019-01-18T00:45:45.234Z,3.67
2019-01-18T00:48:17.978Z,3.73
2019-01-18T00:50:50.668Z,3.67
2019-01-18T00:53:23.368Z,3.70
2019-01-18T00:55:56.027Z,3.74
2019-01-18T00:58:28.688Z,3.70
2019-01-18T01:01:01.374Z,3.70
2019-01-18T01:03:34.127Z,3.90
2019-01-18T01:06:20.826Z,3.82
2019-01-18T01:08:55.563Z,3.77
2019-01-18T01:11:28.311Z,3.81
2019-01-18T01:14:01.197Z,3.77
2019-01-18T01:16:33.934Z,3.79
2019-01-18T01:19:06.736Z,3.68
2019-01-18T01:21:39.587Z,3.66
2019-01-18T01:24:12.273Z,3.41
2019-01-18T01:26:45.023Z,3.45
2019-01-18T01:29:17.678Z,3.43
2019-01-18T01:31:50.354Z,3.37
2019-01-18T01:34:23.101Z,3.27
2019-01-18T01:36:55.770Z,3.26
2019-01-18T01:39:28.546Z,3.26
2019-01-18T01:42:01.326Z,3.24
2019-01-18T01:44:34.189Z,3.19
2019-01-18T01:47:06.942Z,3.10
2019-01-18T01:49:39.727Z,3.14
2019-01-18T01:52:13.567Z,3.26
2019-01-18T01:54:55.823Z,3.18
2019-01-18T01:57:28.478Z,3.24
2019-01-18T02:00:01.232Z,3.46
2019-01-18T02:02:34.067Z,3.33
2019-01-18T02:05:07.048Z,3.33
2019-01-18T02:07:39.739Z,3.30
2019-01-18T02:10:15.044Z,3.37
2019-01-18T02:12:47.747Z,3.40
2019-01-18T02:15:23.420Z,3.46
2019-01-18T02:17:56.244Z,3.35
2019-01-18T02:20:28.957Z,3.37
2019-01-18T02:23:02.067Z,3.32
2019-01-18T02:25:36.013Z,3.41
2019-01-18T02:28:08.794Z,3.41
2019-01-18T02:30:41.489Z,3.35
2019-01-18T02:33:14.163Z,3.19
2019-01-18T02:35:46.920Z,3.19
2019-01-18T02:38:19.650Z,3.04
2019-01-18T02:40:52.399Z,3.05
2019-01-18T02:43:25.092Z,2.96
2019-01-18T02:45:57.847Z,3.04
2019-01-18T02:48:36.296Z,2.99
2019-01-18T02:51:09.389Z,2.91
2019-01-18T02:53:42.060Z,2.87
2019-01-18T02:56:14.809Z,2.89
2019-01-18T02:58:47.477Z,2.95
2019-01-18T03:01:20.150Z,2.84
2019-01-18T03:03:52.830Z,2.87
2019-01-18T03:06:25.486Z,2.90
2019-01-18T03:08:58.138Z,2.68
2019-01-18T03:11:30.853Z,2.53
2019-01-18T03:14:03.534Z,2.46
2019-01-18T03:16:36.193Z,2.38
2019-01-18T03:19:08.918Z,2.25
2019-01-18T03:21:41.632Z,2.29
2019-01-18T03:24:14.313Z,2.30
2019-01-18T03:26:46.997Z,2.18
2019-01-18T03:29:19.640Z,2.24
2019-01-18T03:31:52.297Z,2.30
2019-01-18T03:34:24.991Z,2.32
2019-01-18T03:36:57.650Z,2.33
2019-01-18T03:39:30.326Z,2.31
2019-01-18T03:42:03.044Z,2.24
2019-01-18T03:44:35.719Z,2.27
2019-01-18T03:47:08.380Z,2.18
2019-01-18T03:49:41.165Z,2.37
2019-01-18T03:52:13.863Z,2.28
2019-01-18T03:54:46.542Z,2.31
2019-01-18T03:57:19.270Z,2.32
2019-01-18T03:59:51.935Z,2.31
2019-01-18T04:02:24.685Z,2.38
2019-01-18T04:04:57.362Z,2.36
2019-01-18T04:07:30.084Z,2.51
2019-01-18T04:10:02.793Z,2.40
2019-01-18T04:12:35.528Z,2.69
2019-01-18T04:15:11.522Z,2.53
2019-01-18T04:17:44.225Z,2.79
2019-01-18T04:20:17.997Z,2.17
2019-01-18T04:22:50.715Z,1.97
2019-01-18T04:25:29.846Z,2.00
2019-01-18T04:28:02.523Z,2.29
2019-01-18T04:30:35.507Z,2.24
2019-01-18T04:33:08.540Z,2.14
2019-01-18T04:35:41.286Z,2.12
2019-01-18T04:38:13.977Z,2.26
2019-01-18T04:40:46.738Z,2.14
2019-01-18T04:43:19.486Z,1.89
2019-01-18T04:45:52.252Z,1.88
2019-01-18T04:48:24.928Z,2.07
2019-01-18T04:50:57.705Z,2.10
2019-01-18T04:53:30.413Z,2.19
2019-01-18T04:56:03.128Z,2.10
2019-01-18T04:58:35.822Z,1.88
2019-01-18T05:01:08.574Z,1.78
2019-01-18T05:03:41.436Z,1.88
2019-01-18T05:06:14.106Z,1.88
2019-01-18T05:08:46.793Z,2.11
2019-01-18T05:11:19.499Z,2.08
2019-01-18T05:13:52.206Z,1.91
2019-01-18T05:16:29.467Z,1.86
2019-01-18T05:19:03.005Z,2.10
2019-01-18T05:21:35.689Z,1.85
2019-01-18T05:24:08.519Z,1.85
2019-01-18T05:26:41.514Z,2.19
2019-01-18T05:29:14.229Z,2.11
2019-01-18T05:31:46.908Z,1.94
2019-01-18T05:34:20.070Z,1.75
2019-01-18T05:36:52.847Z,1.97
2019-01-18T05:39:25.556Z,2.00
2019-01-18T05:41:58.502Z,2.67
2019-01-18T05:44:31.265Z,2.51
2019-01-18T05:47:03.967Z,2.61
2019-01-18T05:49:36.762Z,2.07
2019-01-18T05:52:09.737Z,2.15
2019-01-18T05:54:42.513Z,2.15
2019-01-18T05:57:15.195Z,2.03
2019-01-18T05:59:47.950Z,2.21
2019-01-18T06:02:20.759Z,2.33
2019-01-18T06:04:53.968Z,2.21
2019-01-18T06:07:26.757Z,2.44
2019-01-18T06:09:59.449Z,2.38
2019-01-18T06:12:32.223Z,2.32
2019-01-18T06:15:05.437Z,1.87
2019-01-18T06:17:38.305Z,2.04
2019-01-18T06:20:11.459Z,2.36
2019-01-18T06:22:44.708Z,1.97
2019-01-18T06:25:18.052Z,2.39
2019-01-18T06:27:52.285Z,1.90
2019-01-18T06:30:26.689Z,1.93
2019-01-18T06:32:59.953Z,1.65
2019-01-18T06:35:34.123Z,1.85
2019-01-18T06:38:11.820Z,1.96
2019-01-18T06:40:46.683Z,1.62
2019-01-18T06:43:22.612Z,1.69
2019-01-18T06:45:55.744Z,1.86
2019-01-18T06:48:29.960Z,1.74
2019-01-18T06:51:03.182Z,1.73
2019-01-18T06:53:36.516Z,1.56
2019-01-18T06:56:09.879Z,1.85
2019-01-18T06:58:42.898Z,1.71
2019-01-18T07:01:17.640Z,1.73
2019-01-18T07:04:06.098Z,1.64
2019-01-18T07:06:42.760Z,1.66
2019-01-18T07:09:16.037Z,1.69
2019-01-18T07:11:48.986Z,1.73
2019-01-18T07:14:21.773Z,1.72
2019-01-18T07:16:56.403Z,1.58
2019-01-18T07:19:32.371Z,1.93
2019-01-18T07:22:09.856Z,1.98
2019-01-18T07:24:43.270Z,1.83
2019-01-18T07:27:18.576Z,1.84
2019-01-18T07:29:52.838Z,1.62
2019-01-18T07:32:36.607Z,1.54
2019-01-18T07:35:09.735Z,1.79
2019-01-18T07:37:42.404Z,2.08
2019-01-18T07:44:05.599Z,10.53
2019-01-18T07:56:23.065Z,5.25
2019-01-18T07:58:56.022Z,5.25
2019-01-18T08:01:57.011Z,3.85
2019-01-18T08:04:32.905Z,2.89
2019-01-18T08:07:05.717Z,4.08
2019-01-18T08:09:38.495Z,3.81
2019-01-18T08:12:11.261Z,3.77
2019-01-18T08:14:44.064Z,3.79
2019-01-18T08:17:16.820Z,3.84
2019-01-18T08:19:50.607Z,3.68
2019-01-18T08:22:23.342Z,3.64
2019-01-18T08:24:56.035Z,3.40
2019-01-18T08:27:28.764Z,3.56
2019-01-18T08:30:01.548Z,3.87
2019-01-18T08:32:34.396Z,3.15
2019-01-18T08:35:07.668Z,3.22
2019-01-18T08:37:40.447Z,3.47
2019-01-18T08:40:16.511Z,3.95
2019-01-18T08:42:50.205Z,4.18
2019-01-18T08:45:27.057Z,3.88
2019-01-18T08:47:59.770Z,3.61
2019-01-18T08:50:32.445Z,3.72
2019-01-18T08:53:05.150Z,4.62
2019-01-18T08:55:37.946Z,4.56
2019-01-18T08:58:10.603Z,3.99
2019-01-18T09:00:43.312Z,3.19
2019-01-18T09:03:15.994Z,3.81
2019-01-18T09:05:48.746Z,3.86
2019-01-18T09:08:21.423Z,3.98
2019-01-18T09:10:54.200Z,4.07
2019-01-18T09:13:26.931Z,3.78
2019-01-18T09:15:59.779Z,3.40
2019-01-18T09:18:32.751Z,4.31
2019-01-18T09:21:05.593Z,4.82
2019-01-18T09:23:38.381Z,4.59
2019-01-18T09:26:11.138Z,2.89
2019-01-18T09:28:43.851Z,4.26
2019-01-18T09:31:16.579Z,4.25
2019-01-18T09:33:49.297Z,3.64
2019-01-18T09:36:22.015Z,4.04
2019-01-18T09:38:54.791Z,3.79
2019-01-18T09:41:27.502Z,3.35
2019-01-18T09:44:00.165Z,4.81
2019-01-18T09:46:32.846Z,3.82
2019-01-18T09:49:05.628Z,3.41
2019-01-18T09:51:38.387Z,4.67
2019-01-18T09:54:11.121Z,3.56
2019-01-18T09:56:43.807Z,4.36
2019-01-18T09:59:16.556Z,4.39
2019-01-18T10:01:49.598Z,3.13
2019-01-18T10:04:22.342Z,3.48
2019-01-18T10:06:55.069Z,4.57
2019-01-18T10:09:27.814Z,4.76
2019-01-18T10:12:00.581Z,5.04
2019-01-18T10:14:33.328Z,3.51
2019-01-18T10:17:06.055Z,4.27
2019-01-18T10:19:38.839Z,3.64
2019-01-18T10:22:11.592Z,3.68
2019-01-18T10:24:44.325Z,3.16
2019-01-18T10:27:17.008Z,2.83
2019-01-18T10:29:49.707Z,3.81
2019-01-18T10:32:22.426Z,5.12
2019-01-18T10:34:55.168Z,3.74
2019-01-18T10:37:27.860Z,3.23
2019-01-18T10:40:00.534Z,3.36
2019-01-18T10:42:33.287Z,3.29
2019-01-18T10:45:06.651Z,3.25
2019-01-18T10:47:39.432Z,4.11
2019-01-18T10:50:21.615Z,3.62
2019-01-18T10:52:54.371Z,5.09
2019-01-18T10:55:27.048Z,4.12
2019-01-18T10:57:59.758Z,5.57
2019-01-18T11:00:35.512Z,7.12
2019-01-18T11:03:09.085Z,7.94
2019-01-18T11:05:42.069Z,6.62
2019-01-18T11:08:17.547Z,4.35
2019-01-18T11:10:49.402Z,5.64
2019-01-18T11:13:22.091Z,2.99
2019-01-18T11:15:54.760Z,3.90
2019-01-18T11:18:27.431Z,4.42
2019-01-18T11:21:23.428Z,5.11
2019-01-18T11:23:56.164Z,5.12
2019-01-18T11:26:28.858Z,4.41
2019-01-18T11:29:01.562Z,3.47
2019-01-18T11:31:34.210Z,4.72
2019-01-18T11:34:06.901Z,5.71
2019-01-18T11:36:39.584Z,4.75
2019-01-18T11:39:12.359Z,5.86
2019-01-18T11:41:45.124Z,4.83
2019-01-18T11:44:17.797Z,4.06
2019-01-18T11:46:50.479Z,4.70
2019-01-18T11:49:23.184Z,3.97
2019-01-18T11:51:55.856Z,5.43
2019-01-18T11:54:28.553Z,5.65
2019-01-18T11:57:01.224Z,4.82
2019-01-18T11:59:33.892Z,5.14
2019-01-18T12:02:06.565Z,5.09
2019-01-18T12:04:39.233Z,5.25
2019-01-18T12:07:11.887Z,6.69
2019-01-18T12:09:44.553Z,6.03
2019-01-18T12:12:17.234Z,5.96
2019-01-18T12:14:49.918Z,6.10
2019-01-18T12:17:22.588Z,4.18
2019-01-18T12:19:55.263Z,6.02
2019-01-18T12:22:27.938Z,5.72
2019-01-18T12:25:00.702Z,6.58
2019-01-18T12:27:33.458Z,7.22
2019-01-18T12:30:08.363Z,6.38
2019-01-18T12:32:41.080Z,5.61
2019-01-18T12:35:13.873Z,6.44
2019-01-18T12:37:46.654Z,5.67
2019-01-18T12:40:19.655Z,5.84
2019-01-18T12:42:52.454Z,6.09
2019-01-18T12:45:25.942Z,6.53
2019-01-18T12:47:58.700Z,5.35
2019-01-18T12:50:37.221Z,5.47
2019-01-18T12:53:10.128Z,6.24
2019-01-18T12:55:42.821Z,4.21
2019-01-18T12:58:15.527Z,4.60
2019-01-18T13:00:48.301Z,5.48
2019-01-18T13:03:20.990Z,5.98
2019-01-18T13:05:55.761Z,4.41
2019-01-18T13:08:28.539Z,5.58
2019-01-18T13:11:01.243Z,5.15
2019-01-18T13:13:34.034Z,5.27
2019-01-18T13:16:33.656Z,4.11
2019-01-18T13:19:13.976Z,4.62
2019-01-18T13:21:46.661Z,4.74
2019-01-18T13:24:19.590Z,4.60
2019-01-18T13:26:52.279Z,5.60
2019-01-18T13:29:24.941Z,5.51
2019-01-18T13:32:00.699Z,6.51
2019-01-18T13:34:33.401Z,5.35
2019-01-18T13:37:06.105Z,4.68
2019-01-18T13:39:38.897Z,5.46
2019-01-18T13:42:11.630Z,4.26
2019-01-18T13:44:44.376Z,4.99
2019-01-18T13:47:18.509Z,4.70
2019-01-18T13:49:51.593Z,3.84
2019-01-18T13:52:24.258Z,4.26
2019-01-18T13:54:56.960Z,2.82
2019-01-18T13:57:29.646Z,4.01
2019-01-18T14:00:02.357Z,3.40
2019-01-18T14:02:35.324Z,3.44
2019-01-18T14:05:09.304Z,4.08
2019-01-18T14:07:42.292Z,3.86
2019-01-18T14:10:21.910Z,4.17
2019-01-18T14:12:54.628Z,3.87
2019-01-18T14:15:27.353Z,4.39
2019-01-18T14:18:00.285Z,3.88
2019-01-18T14:20:33.037Z,4.63
2019-01-18T14:23:05.819Z,3.98
2019-01-18T14:25:38.543Z,4.01
2019-01-18T14:28:11.326Z,2.73
2019-01-18T14:30:44.092Z,2.48
2019-01-18T14:33:16.766Z,4.07
2019-01-18T14:35:49.485Z,4.96
2019-01-18T14:38:25.220Z,3.74
2019-01-18T14:40:56.606Z,3.46
2019-01-18T14:43:29.299Z,4.48
2019-01-18T14:46:01.974Z,4.95
2019-01-18T14:48:34.718Z,4.16
2019-01-18T14:51:07.412Z,3.92
2019-01-18T14:53:40.109Z,3.73
2019-01-18T14:56:12.804Z,1.97
2019-01-18T14:58:45.476Z,2.92
2019-01-18T15:01:18.152Z,2.16
2019-01-18T15:03:54.170Z,1.52
2019-01-18T15:06:25.357Z,1.96
2019-01-18T15:08:58.037Z,1.69
2019-01-18T15:11:30.764Z,2.59
2019-01-18T15:14:03.470Z,3.16
2019-01-18T15:16:36.158Z,3.05
2019-01-18T15:19:08.935Z,3.94
2019-01-18T15:21:41.632Z,4.27
2019-01-18T15:24:14.364Z,2.86
2019-01-18T15:26:47.067Z,2.74
2019-01-18T15:29:19.754Z,2.32
2019-01-18T15:31:52.482Z,3.08
2019-01-18T15:34:25.197Z,3.45
2019-01-18T15:36:57.926Z,3.25
2019-01-18T15:39:30.666Z,2.32
2019-01-18T15:42:03.419Z,3.02
2019-01-18T15:44:36.390Z,3.33
2019-01-18T15:47:11.279Z,3.39
2019-01-18T15:49:44.050Z,3.92
2019-01-18T15:52:16.814Z,3.67
2019-01-18T15:54:49.595Z,3.47
2019-01-18T15:57:22.403Z,1.85
2019-01-18T15:59:55.324Z,1.89
2019-01-18T16:02:28.128Z,1.90
2019-01-18T16:05:01.180Z,2.53
2019-01-18T16:07:34.202Z,2.77
2019-01-18T16:10:08.019Z,2.08
2019-01-18T16:12:40.841Z,1.78
2019-01-18T16:15:14.552Z,2.10
2019-01-18T16:17:48.477Z,1.87
2019-01-18T16:20:22.791Z,1.32
2019-01-18T16:22:55.528Z,1.76
2019-01-18T16:25:29.819Z,1.32
2019-01-18T16:28:02.515Z,1.69
2019-01-18T16:30:35.283Z,1.40
2019-01-18T16:33:08.008Z,1.34
2019-01-18T16:35:40.733Z,1.36
2019-01-18T16:38:14.445Z,1.72
2019-01-18T16:40:47.117Z,1.30
2019-01-18T16:43:27.769Z,2.04
2019-01-18T16:46:00.675Z,1.64
2019-01-18T16:48:33.565Z,2.66
2019-01-18T16:51:06.693Z,1.75
2019-01-18T16:53:39.504Z,2.19
2019-01-18T16:56:12.687Z,2.04
2019-01-18T16:58:45.402Z,1.73
2019-01-18T17:01:18.108Z,2.21
2019-01-18T17:03:50.779Z,1.42
2019-01-18T17:06:23.489Z,1.67
2019-01-18T17:08:56.157Z,1.19
2019-01-18T17:11:28.937Z,1.67
2019-01-18T17:14:02.003Z,1.91
2019-01-18T17:16:34.706Z,1.65
2019-01-18T17:19:07.546Z,2.12
2019-01-18T17:21:40.289Z,2.18
2019-01-18T17:24:12.981Z,1.49
2019-01-18T17:26:45.726Z,1.34
2019-01-18T17:29:18.409Z,1.61
2019-01-18T17:31:51.084Z,1.03
2019-01-18T17:34:23.803Z,1.24
2019-01-18T17:37:19.711Z,1.47
2019-01-18T17:40:16.194Z,1.49
2019-01-18T17:43:30.811Z,2.07
2019-01-18T17:46:31.626Z,1.77
2019-01-18T17:50:11.684Z,1.67
2019-01-18T17:53:32.407Z,1.88
2019-01-18T17:57:08.040Z,1.46
2019-01-18T18:00:49.631Z,2.34
2019-01-18T18:03:52.738Z,1.53
2019-01-18T18:07:38.025Z,1.48
2019-01-18T18:11:16.840Z,1.33
2019-01-18T18:14:12.863Z,1.70
2019-01-18T18:17:51.577Z,1.66
2019-01-18T18:21:42.052Z,0.99
2019-01-18T18:24:39.351Z,1.54
2019-01-18T18:28:25.775Z,1.16
2019-01-18T18:32:30.836Z,1.86
2019-01-18T18:35:57.918Z,0.73
2019-01-18T18:39:49.764Z,1.02
2019-01-18T18:43:08.665Z,1.05
2019-01-18T18:46:40.132Z,0.91
2019-01-18T18:50:10.710Z,0.95
2019-01-18T18:53:31.805Z,1.00
2019-01-18T18:57:00.745Z,0.74
2019-01-18T19:00:54.925Z,0.96
2019-01-18T19:04:35.558Z,0.25
2019-01-18T19:08:00.194Z,0.30
2019-01-18T19:11:51.308Z,0.33
2019-01-18T19:15:28.636Z,0.69
2019-01-18T19:19:03.395Z,0.80
2019-01-18T19:22:48.554Z,0.47
2019-01-18T19:26:02.195Z,0.78
2019-01-18T19:29:11.048Z,0.66
2019-01-18T19:32:58.108Z,0.80
2019-01-18T19:36:32.746Z,0.79
2019-01-18T19:39:48.339Z,1.39
2019-01-18T19:42:58.531Z,0.53
2019-01-18T19:46:02.729Z,0.49
2019-01-18T19:49:24.322Z,0.60
2019-01-18T19:53:02.599Z,1.07
2019-01-18T19:56:12.396Z,0.53
2019-01-18T19:59:50.383Z,0.93
2019-01-18T20:03:30.995Z,0.60
2019-01-18T20:06:54.982Z,0.88
2019-01-18T20:10:23.877Z,0.99
2019-01-18T20:13:35.251Z,0.65
2019-01-18T20:16:57.623Z,0.76
2019-01-18T20:20:14.314Z,0.91
2019-01-18T20:23:50.462Z,0.76
2019-01-18T20:27:17.455Z,0.46
2019-01-18T20:30:57.654Z,0.83
2019-01-18T20:34:19.937Z,0.64
2019-01-18T20:37:22.823Z,0.31
2019-01-18T20:41:03.872Z,0.21
2019-01-18T20:44:34.528Z,0.71
2019-01-18T20:47:46.257Z,0.39
2019-01-18T20:50:55.870Z,0.30
2019-01-18T20:54:22.407Z,0.32
2019-01-18T20:58:01.671Z,0.50
2019-01-18T21:01:13.577Z,0.85
2019-01-18T21:04:33.326Z,1.64
2019-01-18T21:07:55.572Z,1.10
2019-01-18T21:11:11.987Z,1.03
2019-01-18T21:14:27.389Z,1.44
2019-01-18T21:17:50.092Z,0.65
2019-01-18T21:21:15.140Z,1.12
2019-01-18T21:24:28.031Z,1.13
2019-01-18T21:27:32.528Z,1.00
2019-01-18T21:30:50.019Z,0.89
2019-01-18T21:34:02.821Z,0.64
2019-01-18T21:37:47.705Z,0.62
2019-01-18T21:41:17.193Z,0.96
2019-01-18T21:44:45.684Z,0.91
2019-01-18T21:48:30.635Z,0.75
2019-01-18T21:51:54.517Z,0.59
2019-01-18T21:55:30.669Z,0.60
2019-01-18T21:59:09.193Z,0.59
2019-01-18T22:02:36.696Z,0.51
2019-01-18T22:06:07.534Z,0.99
2019-01-18T22:09:46.355Z,0.66
2019-01-18T22:13:30.532Z,0.84
2019-01-18T22:16:58.368Z,0.93
2019-01-18T22:20:07.665Z,0.62
2019-01-18T22:23:28.419Z,0.34
2019-01-18T22:27:06.224Z,0.80
2019-01-18T22:30:25.221Z,0.70
2019-01-18T22:33:29.843Z,0.49
2019-01-18T22:37:05.424Z,0.54
2019-01-18T22:40:28.122Z,0.64
2019-01-18T22:43:59.538Z,0.58
2019-01-18T22:47:33.484Z,0.31
2019-01-18T22:50:47.214Z,1.20
2019-01-18T22:54:32.159Z,1.03
2019-01-18T22:57:57.590Z,1.05
2019-01-18T23:01:29.009Z,0.74
2019-01-18T23:05:04.821Z,1.09
2019-01-18T23:08:23.496Z,0.92
2019-01-18T23:11:45.030Z,1.37
2019-01-18T23:15:25.853Z,0.89
